sensor_id;sensor_type;location;lat;lon;timestamp;pressure;altitude;pressure_sealevel;temperature;humidity
37298;BME280;30517;51.932;4.278;2022-10-30T00:01:18;101661.41;;;17.54;66.44
37298;BME280;30517;51.932;4.278;2022-10-30T00:03:59;101654.28;;;17.55;66.57
37298;BME280;30517;51.932;4.278;2022-10-30T00:06:39;101664.03;;;17.57;66.25
37298;BME280;30517;51.932;4.278;2022-10-30T00:09:20;101654.41;;;17.50;66.33
37298;BME280;30517;51.932;4.278;2022-10-30T00:12:01;101669.28;;;17.62;65.78
37298;BME280;30517;51.932;4.278;2022-10-30T00:14:41;101661.28;;;17.62;66.23
37298;BME280;30517;51.932;4.278;2022-10-30T00:17:22;101658.88;;;17.48;66.28
37298;BME280;30517;51.932;4.278;2022-10-30T00:20:03;101669.41;;;17.54;66.28
37298;BME280;30517;51.932;4.278;2022-10-30T00:22:44;101673.88;;;17.55;66.13
37298;BME280;30517;51.932;4.278;2022-10-30T00:25:25;101676.56;;;17.52;66.32
37298;BME280;30517;51.932;4.278;2022-10-30T00:28:06;101668.59;;;17.51;66.23
37298;BME280;30517;51.932;4.278;2022-10-30T00:30:47;101667.75;;;17.47;66.54
37298;BME280;30517;51.932;4.278;2022-10-30T00:33:28;101656.19;;;17.48;66.53
37298;BME280;30517;51.932;4.278;2022-10-30T00:36:09;101658.81;;;17.51;66.34
37298;BME280;30517;51.932;4.278;2022-10-30T00:38:50;101658.88;;;17.48;66.43
37298;BME280;30517;51.932;4.278;2022-10-30T00:41:30;101623.75;;;17.23;66.31
37298;BME280;30517;51.932;4.278;2022-10-30T00:44:34;101654.47;;;17.44;66.37
37298;BME280;30517;51.932;4.278;2022-10-30T00:47:31;101545.41;;;16.80;66.41
37298;BME280;30517;51.932;4.278;2022-10-30T00:50:16;101658.00;;;17.46;66.01
37298;BME280;30517;51.932;4.278;2022-10-30T00:53:02;101653.72;;;17.37;66.28
37298;BME280;30517;51.932;4.278;2022-10-30T00:55:53;101666.06;;;17.43;66.33
37298;BME280;30517;51.932;4.278;2022-10-30T00:58:43;101653.72;;;17.36;65.87
37298;BME280;30517;51.932;4.278;2022-10-30T01:01:28;101659.91;;;17.39;66.34
37298;BME280;30517;51.932;4.278;2022-10-30T01:04:12;101617.69;;;17.13;66.18
37298;BME280;30517;51.932;4.278;2022-10-30T01:06:54;101660.94;;;17.31;66.12
37298;BME280;30517;51.932;4.278;2022-10-30T01:09:36;101631.97;;;17.11;66.56
37298;BME280;30517;51.932;4.278;2022-10-30T01:12:18;101671.59;;;17.32;66.50
37298;BME280;30517;51.932;4.278;2022-10-30T01:14:59;101647.88;;;17.15;66.37
37298;BME280;30517;51.932;4.278;2022-10-30T01:21:06;101676.09;;;17.29;66.51
37298;BME280;30517;51.932;4.278;2022-10-30T01:24:09;101671.72;;;17.24;66.52
37298;BME280;30517;51.932;4.278;2022-10-30T01:33:11;101683.28;;;17.23;66.36
37298;BME280;30517;51.932;4.278;2022-10-30T01:36:11;101676.19;;;17.22;66.56
37298;BME280;30517;51.932;4.278;2022-10-30T01:38:58;101663.00;;;17.15;66.52
37298;BME280;30517;51.932;4.278;2022-10-30T01:41:39;101668.16;;;17.24;66.51
37298;BME280;30517;51.932;4.278;2022-10-30T01:44:25;101680.56;;;17.27;66.08
37298;BME280;30517;51.932;4.278;2022-10-30T01:47:19;101682.41;;;17.23;66.31
37298;BME280;30517;51.932;4.278;2022-10-30T01:50:06;101670.91;;;17.19;66.38
37298;BME280;30517;51.932;4.278;2022-10-30T01:56:17;101673.56;;;17.19;66.19
37298;BME280;30517;51.932;4.278;2022-10-30T01:58:59;101677.16;;;17.18;66.50
37298;BME280;30517;51.932;4.278;2022-10-30T02:01:43;101645.50;;;16.97;66.40
37298;BME280;30517;51.932;4.278;2022-10-30T02:04:25;101672.75;;;17.16;66.40
37298;BME280;30517;51.932;4.278;2022-10-30T02:07:06;101673.63;;;17.16;66.38
37298;BME280;30517;51.932;4.278;2022-10-30T02:09:47;101669.22;;;17.14;66.51
37298;BME280;30517;51.932;4.278;2022-10-30T02:12:30;101678.94;;;17.18;66.37
37298;BME280;30517;51.932;4.278;2022-10-30T02:15:11;101678.88;;;17.21;65.88
37298;BME280;30517;51.932;4.278;2022-10-30T02:17:53;101681.69;;;17.13;66.15
37298;BME280;30517;51.932;4.278;2022-10-30T02:20:36;101664.94;;;17.05;66.10
37298;BME280;30517;51.932;4.278;2022-10-30T02:23:17;101678.13;;;17.13;66.10
37298;BME280;30517;51.932;4.278;2022-10-30T02:25:58;101680.81;;;17.13;66.38
37298;BME280;30517;51.932;4.278;2022-10-30T02:28:39;101683.47;;;17.11;66.13
37298;BME280;30517;51.932;4.278;2022-10-30T02:31:20;101676.41;;;17.09;66.35
37298;BME280;30517;51.932;4.278;2022-10-30T02:34:00;101685.31;;;17.08;66.17
37298;BME280;30517;51.932;4.278;2022-10-30T02:36:42;101657.97;;;16.95;65.73
37298;BME280;30517;51.932;4.278;2022-10-30T02:39:23;101671.25;;;16.99;65.94
37298;BME280;30517;51.932;4.278;2022-10-30T02:42:04;101679.13;;;17.07;66.09
37298;BME280;30517;51.932;4.278;2022-10-30T02:44:44;101687.94;;;17.09;65.96
37298;BME280;30517;51.932;4.278;2022-10-30T02:47:27;101644.00;;;16.79;66.01
37298;BME280;30517;51.932;4.278;2022-10-30T02:50:08;101659.81;;;16.90;65.77
37298;BME280;30517;51.932;4.278;2022-10-30T02:52:49;101680.03;;;17.05;66.17
37298;BME280;30517;51.932;4.278;2022-10-30T02:55:30;101686.25;;;17.05;66.29
37298;BME280;30517;51.932;4.278;2022-10-30T02:58:10;101686.31;;;17.02;65.96
37298;BME280;30517;51.932;4.278;2022-10-30T03:00:51;101673.84;;;17.04;66.11
37298;BME280;30517;51.932;4.278;2022-10-30T03:03:32;101665.84;;;17.04;66.00
37298;BME280;30517;51.932;4.278;2022-10-30T03:06:15;101673.84;;;17.04;65.93
37298;BME280;30517;51.932;4.278;2022-10-30T03:08:56;101681.84;;;17.02;65.81
37298;BME280;30517;51.932;4.278;2022-10-30T03:11:37;101679.22;;;16.99;65.99
37298;BME280;30517;51.932;4.278;2022-10-30T03:14:17;101678.41;;;16.96;66.21
37298;BME280;30517;51.932;4.278;2022-10-30T03:16:58;101661.50;;;16.97;66.11
37298;BME280;30517;51.932;4.278;2022-10-30T03:19:39;101669.56;;;16.94;66.21
37298;BME280;30517;51.932;4.278;2022-10-30T03:22:20;101682.81;;;16.97;66.11
37298;BME280;30517;51.932;4.278;2022-10-30T03:25:00;101668.69;;;16.92;65.94
37298;BME280;30517;51.932;4.278;2022-10-30T03:27:41;101676.56;;;16.99;66.34
37298;BME280;30517;51.932;4.278;2022-10-30T03:30:22;101674.94;;;16.89;66.17
37298;BME280;30517;51.932;4.278;2022-10-30T03:33:03;101652.94;;;16.75;65.95
37298;BME280;30517;51.932;4.278;2022-10-30T03:35:44;101671.50;;;16.83;66.08
37298;BME280;30517;51.932;4.278;2022-10-30T03:38:25;101667.16;;;16.77;66.17
37298;BME280;30517;51.932;4.278;2022-10-30T03:41:06;101693.69;;;16.81;66.15
37298;BME280;30517;51.932;4.278;2022-10-30T03:43:47;101690.00;;;16.90;65.93
37298;BME280;30517;51.932;4.278;2022-10-30T03:46:27;101689.31;;;16.76;66.89
37298;BME280;30517;51.932;4.278;2022-10-30T03:49:10;101691.03;;;16.81;66.24
37298;BME280;30517;51.932;4.278;2022-10-30T03:51:51;101685.81;;;16.72;66.62
37298;BME280;30517;51.932;4.278;2022-10-30T03:54:32;101696.44;;;16.75;66.40
37298;BME280;30517;51.932;4.278;2022-10-30T03:57:12;101696.44;;;16.74;66.76
37298;BME280;30517;51.932;4.278;2022-10-30T03:59:53;101683.31;;;16.60;66.86
37298;BME280;30517;51.932;4.278;2022-10-30T04:02:34;101694.78;;;16.67;66.68
37298;BME280;30517;51.932;4.278;2022-10-30T04:05:17;101683.28;;;16.63;67.03
37298;BME280;30517;51.932;4.278;2022-10-30T04:07:59;101689.47;;;16.67;66.54
37298;BME280;30517;51.932;4.278;2022-10-30T04:10:44;101689.50;;;16.62;66.92
37298;BME280;30517;51.932;4.278;2022-10-30T04:13:26;101679.69;;;16.66;66.46
37298;BME280;30517;51.932;4.278;2022-10-30T04:16:06;101679.84;;;16.55;67.12
37298;BME280;30517;51.932;4.278;2022-10-30T04:18:47;101648.22;;;16.32;67.23
37298;BME280;30517;51.932;4.278;2022-10-30T04:21:28;101651.69;;;16.35;67.18
37298;BME280;30517;51.932;4.278;2022-10-30T04:24:09;101663.84;;;16.56;66.55
37298;BME280;30517;51.932;4.278;2022-10-30T04:26:49;101653.19;;;16.55;66.98
37298;BME280;30517;51.932;4.278;2022-10-30T04:29:30;101656.78;;;16.54;66.67
37298;BME280;30517;51.932;4.278;2022-10-30T04:32:11;101643.50;;;16.49;66.65
37298;BME280;30517;51.932;4.278;2022-10-30T04:34:52;101652.44;;;16.47;66.75
37298;BME280;30517;51.932;4.278;2022-10-30T04:37:33;101658.66;;;16.47;67.02
37298;BME280;30517;51.932;4.278;2022-10-30T04:40:14;101635.66;;;16.40;66.72
37298;BME280;30517;51.932;4.278;2022-10-30T04:42:55;101654.97;;;16.56;66.53
37298;BME280;30517;51.932;4.278;2022-10-30T04:45:36;101652.44;;;16.47;66.88
37298;BME280;30517;51.932;4.278;2022-10-30T04:48:17;101659.53;;;16.48;67.15
37298;BME280;30517;51.932;4.278;2022-10-30T04:50:58;101659.59;;;16.42;66.82
37298;BME280;30517;51.932;4.278;2022-10-30T04:53:39;101665.84;;;16.41;67.15
37298;BME280;30517;51.932;4.278;2022-10-30T04:56:20;101669.41;;;16.38;67.28
37298;BME280;30517;51.932;4.278;2022-10-30T04:59:00;101667.63;;;16.38;66.98
37298;BME280;30517;51.932;4.278;2022-10-30T05:01:41;101671.13;;;16.44;66.87
37298;BME280;30517;51.932;4.278;2022-10-30T05:04:23;101658.81;;;16.36;67.02
37298;BME280;30517;51.932;4.278;2022-10-30T05:07:04;101660.56;;;16.37;66.60
37298;BME280;30517;51.932;4.278;2022-10-30T05:09:46;101665.09;;;16.29;67.35
37298;BME280;30517;51.932;4.278;2022-10-30T05:12:26;101665.09;;;16.28;67.07
37298;BME280;30517;51.932;4.278;2022-10-30T05:15:08;101622.78;;;16.08;66.75
37298;BME280;30517;51.932;4.278;2022-10-30T05:17:51;101639.66;;;16.07;67.31
37298;BME280;30517;51.932;4.278;2022-10-30T05:20:32;101662.47;;;16.26;67.00
37298;BME280;30517;51.932;4.278;2022-10-30T05:23:13;101638.66;;;16.15;66.75
37298;BME280;30517;51.932;4.278;2022-10-30T05:25:54;101641.28;;;16.19;66.97
37298;BME280;30517;51.932;4.278;2022-10-30T05:28:35;101670.47;;;16.25;66.80
37298;BME280;30517;51.932;4.278;2022-10-30T05:31:15;101666.09;;;16.19;66.84
37298;BME280;30517;51.932;4.278;2022-10-30T05:33:56;101677.59;;;16.23;67.16
37298;BME280;30517;51.932;4.278;2022-10-30T05:36:37;101682.03;;;16.22;66.79
37298;BME280;30517;51.932;4.278;2022-10-30T05:39:17;101678.66;;;16.08;67.38
37298;BME280;30517;51.932;4.278;2022-10-30T05:41:58;101682.94;;;16.20;67.23
37298;BME280;30517;51.932;4.278;2022-10-30T05:44:39;101672.47;;;16.06;67.41
37298;BME280;30517;51.932;4.278;2022-10-30T05:47:20;101689.28;;;16.11;67.34
37298;BME280;30517;51.932;4.278;2022-10-30T05:50:01;101684.06;;;16.02;67.47
37298;BME280;30517;51.932;4.278;2022-10-30T05:52:41;101676.84;;;16.13;67.37
37298;BME280;30517;51.932;4.278;2022-10-30T05:55:23;101673.31;;;16.11;66.92
37298;BME280;30517;51.932;4.278;2022-10-30T05:58:05;101659.22;;;16.03;66.83
37298;BME280;30517;51.932;4.278;2022-10-30T06:00:46;101652.19;;;15.97;66.97
37298;BME280;30517;51.932;4.278;2022-10-30T06:03:26;101646.84;;;15.99;66.98
37298;BME280;30517;51.932;4.278;2022-10-30T06:06:07;101669.03;;;15.99;66.87
37298;BME280;30517;51.932;4.278;2022-10-30T06:08:48;101679.66;;;15.99;67.25
37298;BME280;30517;51.932;4.278;2022-10-30T06:11:29;101672.59;;;15.97;67.20
37298;BME280;30517;51.932;4.278;2022-10-30T06:14:10;101691.97;;;16.08;66.95
37298;BME280;30517;51.932;4.278;2022-10-30T06:16:50;101682.25;;;16.04;66.79
37298;BME280;30517;51.932;4.278;2022-10-30T06:19:31;101685.00;;;15.98;67.16
37298;BME280;30517;51.932;4.278;2022-10-30T06:22:12;101669.09;;;15.90;67.18
37298;BME280;30517;51.932;4.278;2022-10-30T06:24:53;101681.38;;;16.05;66.76
37298;BME280;30517;51.932;4.278;2022-10-30T06:27:34;101677.88;;;15.98;67.07
37298;BME280;30517;51.932;4.278;2022-10-30T06:30:15;101649.78;;;15.74;67.19
37298;BME280;30517;51.932;4.278;2022-10-30T06:32:57;101684.13;;;15.97;66.86
37298;BME280;30517;51.932;4.278;2022-10-30T06:35:38;101679.78;;;15.88;67.10
37298;BME280;30517;51.932;4.278;2022-10-30T06:38:18;101648.88;;;15.75;67.20
37298;BME280;30517;51.932;4.278;2022-10-30T06:40:59;101673.47;;;15.96;66.55
37298;BME280;30517;51.932;4.278;2022-10-30T06:43:40;101664.75;;;15.84;66.96
37298;BME280;30517;51.932;4.278;2022-10-30T06:46:21;101671.69;;;15.98;66.72
37298;BME280;30517;51.932;4.278;2022-10-30T06:49:02;101666.41;;;15.96;66.44
37298;BME280;30517;51.932;4.278;2022-10-30T06:51:43;101641.66;;;15.86;66.09
37298;BME280;30517;51.932;4.278;2022-10-30T06:54:23;101659.41;;;15.84;66.76
37298;BME280;30517;51.932;4.278;2022-10-30T06:57:04;101654.09;;;15.84;66.66
37298;BME280;30517;51.932;4.278;2022-10-30T06:59:45;101658.59;;;15.79;66.92
37298;BME280;30517;51.932;4.278;2022-10-30T07:02:26;101679.81;;;15.85;66.64
37298;BME280;30517;51.932;4.278;2022-10-30T07:05:06;101683.31;;;15.87;66.98
37298;BME280;30517;51.932;4.278;2022-10-30T07:07:47;101676.25;;;15.85;66.86
37298;BME280;30517;51.932;4.278;2022-10-30T07:10:28;101670.06;;;15.84;66.46
37298;BME280;30517;51.932;4.278;2022-10-30T07:13:09;101670.94;;;15.88;66.72
37298;BME280;30517;51.932;4.278;2022-10-30T07:15:50;101635.69;;;15.63;66.54
37298;BME280;30517;51.932;4.278;2022-10-30T07:18:30;101678.91;;;15.86;66.47
37298;BME280;30517;51.932;4.278;2022-10-30T07:21:11;101657.72;;;15.80;66.34
37298;BME280;30517;51.932;4.278;2022-10-30T07:23:52;101682.47;;;15.85;66.62
37298;BME280;30517;51.932;4.278;2022-10-30T07:26:33;101670.97;;;15.82;65.86
37298;BME280;30517;51.932;4.278;2022-10-30T07:29:17;101673.59;;;15.85;66.46
37298;BME280;30517;51.932;4.278;2022-10-30T07:31:57;101684.22;;;15.86;66.74
37298;BME280;30517;51.932;4.278;2022-10-30T07:34:38;101688.69;;;15.84;66.55
37298;BME280;30517;51.932;4.278;2022-10-30T07:37:19;101674.53;;;15.79;67.03
37298;BME280;30517;51.932;4.278;2022-10-30T07:40:00;101649.84;;;15.65;66.71
37298;BME280;30517;51.932;4.278;2022-10-30T07:42:41;101660.44;;;15.73;66.84
37298;BME280;30517;51.932;4.278;2022-10-30T07:45:21;101658.69;;;15.72;66.58
37298;BME280;30517;51.932;4.278;2022-10-30T07:48:02;101677.19;;;15.79;66.68
37298;BME280;30517;51.932;4.278;2022-10-30T07:50:43;101666.72;;;15.64;66.58
37298;BME280;30517;51.932;4.278;2022-10-30T07:53:24;101692.31;;;15.74;67.03
37298;BME280;30517;51.932;4.278;2022-10-30T07:56:05;101686.16;;;15.72;66.57
37298;BME280;30517;51.932;4.278;2022-10-30T07:58:46;101702.09;;;15.74;66.88
37298;BME280;30517;51.932;4.278;2022-10-30T08:01:26;101715.34;;;15.80;66.59
37298;BME280;30517;51.932;4.278;2022-10-30T08:04:07;101702.06;;;15.80;66.45
37298;BME280;30517;51.932;4.278;2022-10-30T08:06:50;101707.34;;;15.81;66.35
37298;BME280;30517;51.932;4.278;2022-10-30T08:09:31;101686.16;;;15.70;66.68
37298;BME280;30517;51.932;4.278;2022-10-30T08:12:11;101710.00;;;15.83;66.30
37298;BME280;30517;51.932;4.278;2022-10-30T08:14:52;101712.72;;;15.74;66.56
37298;BME280;30517;51.932;4.278;2022-10-30T08:17:40;101724.22;;;15.80;66.67
37298;BME280;30517;51.932;4.278;2022-10-30T08:20:23;101716.25;;;15.76;66.71
37298;BME280;30517;51.932;4.278;2022-10-30T08:23:04;101719.72;;;15.82;66.32
37298;BME280;30517;51.932;4.278;2022-10-30T08:25:44;101688.88;;;15.63;66.64
37298;BME280;30517;51.932;4.278;2022-10-30T08:28:26;101698.59;;;15.70;66.60
37298;BME280;30517;51.932;4.278;2022-10-30T08:31:07;101696.78;;;15.75;66.62
37298;BME280;30517;51.932;4.278;2022-10-30T08:33:48;101704.69;;;15.81;66.54
37298;BME280;30517;51.932;4.278;2022-10-30T08:36:28;101707.38;;;15.78;66.53
37298;BME280;30517;51.932;4.278;2022-10-30T08:39:09;101708.38;;;15.60;66.40
37298;BME280;30517;51.932;4.278;2022-10-30T08:41:50;101718.94;;;15.77;66.33
37298;BME280;30517;51.932;4.278;2022-10-30T08:44:31;101705.63;;;15.74;66.38
37298;BME280;30517;51.932;4.278;2022-10-30T08:47:11;101718.06;;;15.74;66.46
37298;BME280;30517;51.932;4.278;2022-10-30T08:49:52;101716.34;;;15.66;67.12
37298;BME280;30517;51.932;4.278;2022-10-30T08:52:33;101715.44;;;15.70;66.88
37298;BME280;30517;51.932;4.278;2022-10-30T08:55:14;101708.47;;;15.51;67.11
37298;BME280;30517;51.932;4.278;2022-10-30T08:57:54;101711.84;;;15.73;66.76
37298;BME280;30517;51.932;4.278;2022-10-30T09:00:35;101709.34;;;15.55;66.66
37298;BME280;30517;51.932;4.278;2022-10-30T09:03:17;101720.78;;;15.69;67.01
37298;BME280;30517;51.932;4.278;2022-10-30T09:05:58;101714.53;;;15.72;66.98
37298;BME280;30517;51.932;4.278;2022-10-30T09:08:40;101718.97;;;15.68;66.97
37298;BME280;30517;51.932;4.278;2022-10-30T09:11:20;101717.22;;;15.72;66.83
37298;BME280;30517;51.932;4.278;2022-10-30T09:14:01;101728.63;;;15.81;66.74
37298;BME280;30517;51.932;4.278;2022-10-30T09:16:42;101722.47;;;15.76;67.11
37298;BME280;30517;51.932;4.278;2022-10-30T09:19:23;101711.00;;;15.65;66.68
37298;BME280;30517;51.932;4.278;2022-10-30T09:22:04;101705.84;;;15.46;67.07
37298;BME280;30517;51.932;4.278;2022-10-30T09:24:45;101731.34;;;15.75;66.90
37298;BME280;30517;51.932;4.278;2022-10-30T09:27:25;101721.75;;;15.54;67.60
37298;BME280;30517;51.932;4.278;2022-10-30T09:30:07;101727.00;;;15.62;67.63
37298;BME280;30517;51.932;4.278;2022-10-30T09:32:55;101699.69;;;15.43;67.49
37298;BME280;30517;51.932;4.278;2022-10-30T09:35:36;101723.44;;;15.64;67.30
37298;BME280;30517;51.932;4.278;2022-10-30T09:38:17;101727.03;;;15.59;67.46
37298;BME280;30517;51.932;4.278;2022-10-30T09:44:22;101726.94;;;15.68;67.31
37298;BME280;30517;51.932;4.278;2022-10-30T09:47:22;101725.19;;;15.67;67.49
37298;BME280;30517;51.932;4.278;2022-10-30T09:53:21;101713.66;;;15.63;67.72
37298;BME280;30517;51.932;4.278;2022-10-30T09:56:08;101689.78;;;15.60;67.50
37298;BME280;30517;51.932;4.278;2022-10-30T09:59:22;101708.31;;;15.71;67.16
37298;BME280;30517;51.932;4.278;2022-10-30T10:04:54;101710.09;;;15.66;67.60
37298;BME280;30517;51.932;4.278;2022-10-30T10:07:41;101675.66;;;15.54;67.49
37298;BME280;30517;51.932;4.278;2022-10-30T10:10:42;101720.69;;;15.80;66.92
37298;BME280;30517;51.932;4.278;2022-10-30T10:13:49;101719.66;;;15.91;66.76
37298;BME280;30517;51.932;4.278;2022-10-30T10:16:33;101696.69;;;15.81;66.46
37298;BME280;30517;51.932;4.278;2022-10-30T10:19:29;101685.22;;;15.76;66.89
37298;BME280;30517;51.932;4.278;2022-10-30T10:22:20;101721.25;;;16.06;66.23
37298;BME280;30517;51.932;4.278;2022-10-30T10:25:05;101712.34;;;16.09;66.43
37298;BME280;30517;51.932;4.278;2022-10-30T10:28:20;101701.72;;;16.09;66.32
37298;BME280;30517;51.932;4.278;2022-10-30T10:31:23;101713.19;;;16.15;65.83
37298;BME280;30517;51.932;4.278;2022-10-30T10:37:14;101702.63;;;16.09;68.00
37298;BME280;30517;51.932;4.278;2022-10-30T10:43:09;101717.72;;;16.06;69.34
37298;BME280;30517;51.932;4.278;2022-10-30T10:46:32;101706.00;;;16.22;67.68
37298;BME280;30517;51.932;4.278;2022-10-30T10:49:28;101695.34;;;16.24;67.71
37298;BME280;30517;51.932;4.278;2022-10-30T10:52:22;101680.16;;;16.30;67.13
37298;BME280;30517;51.932;4.278;2022-10-30T10:55:13;101667.84;;;16.23;66.63
37298;BME280;30517;51.932;4.278;2022-10-30T10:57:58;101684.56;;;16.34;66.69
37298;BME280;30517;51.932;4.278;2022-10-30T11:00:44;101666.03;;;16.25;66.56
37298;BME280;30517;51.932;4.278;2022-10-30T11:03:33;101662.44;;;16.29;66.69
37298;BME280;30517;51.932;4.278;2022-10-30T11:06:31;101675.66;;;16.37;66.67
37298;BME280;30517;51.932;4.278;2022-10-30T11:09:17;101543.47;;;15.63;66.14
37298;BME280;30517;51.932;4.278;2022-10-30T11:11:59;101655.28;;;16.33;66.47
37298;BME280;30517;51.932;4.278;2022-10-30T11:14:40;101688.00;;;16.43;66.61
37298;BME280;30517;51.932;4.278;2022-10-30T11:17:25;101674.69;;;16.43;66.50
37298;BME280;30517;51.932;4.278;2022-10-30T11:20:18;101673.78;;;16.44;66.48
37298;BME280;30517;51.932;4.278;2022-10-30T11:23:00;101675.56;;;16.45;66.19
37298;BME280;30517;51.932;4.278;2022-10-30T11:25:41;101670.22;;;16.45;66.19
37298;BME280;30517;51.932;4.278;2022-10-30T11:28:39;101663.13;;;16.45;66.08
37298;BME280;30517;51.932;4.278;2022-10-30T11:31:32;101668.41;;;16.47;66.28
37298;BME280;30517;51.932;4.278;2022-10-30T11:34:23;101660.38;;;16.50;66.25
37298;BME280;30517;51.932;4.278;2022-10-30T11:37:31;101662.16;;;16.49;66.11
37298;BME280;30517;51.932;4.278;2022-10-30T11:42:59;101672.75;;;16.52;65.86
37298;BME280;30517;51.932;4.278;2022-10-30T11:45:42;101671.84;;;16.56;65.94
37298;BME280;30517;51.932;4.278;2022-10-30T11:48:31;101679.81;;;16.58;66.04
37298;BME280;30517;51.932;4.278;2022-10-30T11:51:16;101679.78;;;16.61;66.20
37298;BME280;30517;51.932;4.278;2022-10-30T11:54:17;101689.50;;;16.64;66.18
37298;BME280;30517;51.932;4.278;2022-10-30T11:56:59;101696.56;;;16.66;66.18
37298;BME280;30517;51.932;4.278;2022-10-30T11:59:44;101689.47;;;16.67;66.26
37298;BME280;30517;51.932;4.278;2022-10-30T12:02:28;101673.56;;;16.59;66.26
37298;BME280;30517;51.932;4.278;2022-10-30T12:13:35;101684.84;;;16.76;65.96
37298;BME280;30517;51.932;4.278;2022-10-30T12:16:17;101670.72;;;16.71;65.96
37298;BME280;30517;51.932;4.278;2022-10-30T12:19:04;101691.94;;;16.80;66.10
37298;BME280;30517;51.932;4.278;2022-10-30T12:21:50;101686.56;;;16.84;65.85
37298;BME280;30517;51.932;4.278;2022-10-30T12:24:35;101655.66;;;16.70;65.93
37298;BME280;30517;51.932;4.278;2022-10-30T12:27:16;101652.88;;;16.79;65.76
37298;BME280;30517;51.932;4.278;2022-10-30T12:30:03;101672.31;;;16.88;65.78
37298;BME280;30517;51.932;4.278;2022-10-30T12:32:51;101659.81;;;16.90;66.11
37298;BME280;30517;51.932;4.278;2022-10-30T12:35:48;101606.88;;;16.65;65.69
37298;BME280;30517;51.932;4.278;2022-10-30T12:38:37;101645.63;;;16.89;65.72
37298;BME280;30517;51.932;4.278;2022-10-30T12:41:31;101656.16;;;16.97;65.99
37298;BME280;30517;51.932;4.278;2022-10-30T12:44:24;101658.78;;;16.98;65.68
37298;BME280;30517;51.932;4.278;2022-10-30T12:47:29;101659.75;;;16.96;65.81
37298;BME280;30517;51.932;4.278;2022-10-30T12:56:19;101640.94;;;17.05;65.91
37298;BME280;30517;51.932;4.278;2022-10-30T13:01:56;101603.03;;;16.86;65.69
37298;BME280;30517;51.932;4.278;2022-10-30T13:04:42;101630.38;;;16.99;65.69
37298;BME280;30517;51.932;4.278;2022-10-30T13:07:36;101655.97;;;17.09;65.71
37298;BME280;30517;51.932;4.278;2022-10-30T13:10:33;101638.28;;;17.05;65.46
37298;BME280;30517;51.932;4.278;2022-10-30T13:13:27;101642.56;;;17.14;65.53
37298;BME280;30517;51.932;4.278;2022-10-30T13:16:17;101641.69;;;17.13;65.89
37298;BME280;30517;51.932;4.278;2022-10-30T13:18:59;101639.00;;;17.15;65.54
37298;BME280;30517;51.932;4.278;2022-10-30T13:24:53;101652.25;;;17.19;65.57
37298;BME280;30517;51.932;4.278;2022-10-30T13:27:59;101661.09;;;17.21;65.68
37298;BME280;30517;51.932;4.278;2022-10-30T13:30:58;101671.75;;;17.23;65.63
37298;BME280;30517;51.932;4.278;2022-10-30T13:33:51;101659.25;;;17.25;65.66
37298;BME280;30517;51.932;4.278;2022-10-30T13:36:46;101659.25;;;17.27;65.82
37298;BME280;30517;51.932;4.278;2022-10-30T13:39:35;101681.44;;;17.27;65.53
37298;BME280;30517;51.932;4.278;2022-10-30T13:51:42;101714.25;;;17.34;65.75
37298;BME280;30517;51.932;4.278;2022-10-30T13:54:29;101698.31;;;17.28;65.77
37298;BME280;30517;51.932;4.278;2022-10-30T14:00:18;101708.78;;;17.40;65.88
37298;BME280;30517;51.932;4.278;2022-10-30T14:06:16;101705.38;;;17.32;65.87
37298;BME280;30517;51.932;4.278;2022-10-30T14:09:23;101711.50;;;17.37;65.99
37298;BME280;30517;51.932;4.278;2022-10-30T14:15:41;101712.31;;;17.42;65.44
37298;BME280;30517;51.932;4.278;2022-10-30T14:18:25;101714.00;;;17.47;65.52
37298;BME280;30517;51.932;4.278;2022-10-30T14:21:28;101728.22;;;17.48;65.76
37298;BME280;30517;51.932;4.278;2022-10-30T14:29:49;101705.91;;;17.52;65.75
37298;BME280;30517;51.932;4.278;2022-10-30T14:32:35;101689.56;;;17.21;66.71
37298;BME280;30517;51.932;4.278;2022-10-30T14:43:44;101727.25;;;17.52;65.69
37298;BME280;30517;51.932;4.278;2022-10-30T14:49:46;101750.31;;;17.56;66.01
37298;BME280;30517;51.932;4.278;2022-10-30T14:55:49;101777.22;;;17.41;66.95
37298;BME280;30517;51.932;4.278;2022-10-30T14:58:34;101778.72;;;17.57;66.38
37298;BME280;30517;51.932;4.278;2022-10-30T15:01:23;101781.41;;;17.57;66.16
37298;BME280;30517;51.932;4.278;2022-10-30T15:04:18;101784.00;;;17.60;65.72
37298;BME280;30517;51.932;4.278;2022-10-30T15:10:33;101788.41;;;17.63;65.59
37298;BME280;30517;51.932;4.278;2022-10-30T15:13:19;101786.69;;;17.60;65.69
37298;BME280;30517;51.932;4.278;2022-10-30T15:16:06;101763.66;;;17.55;65.60
37298;BME280;30517;51.932;4.278;2022-10-30T15:18:54;101776.91;;;17.61;65.85
37298;BME280;30517;51.932;4.278;2022-10-30T15:21:44;101773.31;;;17.62;65.53
37298;BME280;30517;51.932;4.278;2022-10-30T15:24:28;101768.88;;;17.62;65.54
37298;BME280;30517;51.932;4.278;2022-10-30T15:27:17;101767.19;;;17.57;65.19
37298;BME280;30517;51.932;4.278;2022-10-30T15:30:00;101774.25;;;17.59;65.61
37298;BME280;30517;51.932;4.278;2022-10-30T15:32:41;101790.22;;;17.62;65.06
37298;BME280;30517;51.932;4.278;2022-10-30T15:35:24;101782.25;;;17.61;65.72
37298;BME280;30517;51.932;4.278;2022-10-30T15:38:08;101788.47;;;17.61;65.25
37298;BME280;30517;51.932;4.278;2022-10-30T15:40:50;101769.78;;;17.61;65.40
37298;BME280;30517;51.932;4.278;2022-10-30T15:43:39;101776.88;;;17.62;65.41
37298;BME280;30517;51.932;4.278;2022-10-30T15:46:21;101781.31;;;17.62;65.50
37298;BME280;30517;51.932;4.278;2022-10-30T15:49:02;101775.19;;;17.58;65.51
37298;BME280;30517;51.932;4.278;2022-10-30T15:51:45;101781.31;;;17.63;65.52
37298;BME280;30517;51.932;4.278;2022-10-30T15:54:28;101754.84;;;17.50;65.43